sensor_id;sensor_type;location;lat;lon;timestamp;P1;durP1;ratioP1;P2;durP2;ratioP2
11084;SDS011;5596;46.826;8.650;2023-02-18T00:02:10;6.93;;;1.93;;
11084;SDS011;5596;46.826;8.650;2023-02-18T00:04:36;3.73;;;1.50;;
11084;SDS011;5596;46.826;8.650;2023-02-18T00:07:03;2.23;;;1.60;;
11084;SDS011;5596;46.826;8.650;2023-02-18T00:09:30;4.67;;;1.50;;
11084;SDS011;5596;46.826;8.650;2023-02-18T00:11:58;6.70;;;1.80;;
11084;SDS011;5596;46.826;8.650;2023-02-18T00:14:25;2.93;;;1.57;;
11084;SDS011;5596;46.826;8.650;2023-02-18T00:16:52;2.73;;;1.43;;
11084;SDS011;5596;46.826;8.650;2023-02-18T00:19:19;3.57;;;1.80;;
11084;SDS011;5596;46.826;8.650;2023-02-18T00:21:47;1.30;;;1.20;;
11084;SDS011;5596;46.826;8.650;2023-02-18T00:24:14;3.90;;;1.63;;
11084;SDS011;5596;46.826;8.650;2023-02-18T00:26:41;1.83;;;1.30;;
11084;SDS011;5596;46.826;8.650;2023-02-18T00:29:09;5.33;;;1.70;;
11084;SDS011;5596;46.826;8.650;2023-02-18T00:31:37;1.80;;;1.30;;
11084;SDS011;5596;46.826;8.650;2023-02-18T00:34:04;2.23;;;1.40;;
11084;SDS011;5596;46.826;8.650;2023-02-18T00:36:32;1.40;;;1.30;;
11084;SDS011;5596;46.826;8.650;2023-02-18T00:39:00;1.60;;;1.20;;
11084;SDS011;5596;46.826;8.650;2023-02-18T00:41:28;3.03;;;1.30;;
11084;SDS011;5596;46.826;8.650;2023-02-18T00:43:55;1.37;;;1.20;;
11084;SDS011;5596;46.826;8.650;2023-02-18T00:46:24;1.33;;;1.20;;
11084;SDS011;5596;46.826;8.650;2023-02-18T00:48:52;2.30;;;1.60;;
11084;SDS011;5596;46.826;8.650;2023-02-18T00:51:18;2.23;;;1.47;;
11084;SDS011;5596;46.826;8.650;2023-02-18T00:53:47;3.80;;;1.80;;
11084;SDS011;5596;46.826;8.650;2023-02-18T00:56:13;1.53;;;1.20;;
11084;SDS011;5596;46.826;8.650;2023-02-18T00:58:41;1.43;;;1.20;;
11084;SDS011;5596;46.826;8.650;2023-02-18T01:01:08;2.20;;;1.40;;
11084;SDS011;5596;46.826;8.650;2023-02-18T01:03:37;2.20;;;1.30;;
11084;SDS011;5596;46.826;8.650;2023-02-18T01:06:05;1.80;;;1.30;;
11084;SDS011;5596;46.826;8.650;2023-02-18T01:08:32;2.77;;;1.40;;
11084;SDS011;5596;46.826;8.650;2023-02-18T01:10:59;4.67;;;1.43;;
11084;SDS011;5596;46.826;8.650;2023-02-18T01:13:26;2.50;;;1.20;;
11084;SDS011;5596;46.826;8.650;2023-02-18T01:15:53;1.90;;;1.37;;
11084;SDS011;5596;46.826;8.650;2023-02-18T01:18:20;1.80;;;1.20;;
11084;SDS011;5596;46.826;8.650;2023-02-18T01:20:48;1.53;;;1.40;;
11084;SDS011;5596;46.826;8.650;2023-02-18T01:23:15;1.97;;;1.47;;
11084;SDS011;5596;46.826;8.650;2023-02-18T01:25:42;2.47;;;1.30;;
11084;SDS011;5596;46.826;8.650;2023-02-18T01:28:10;1.70;;;1.27;;
11084;SDS011;5596;46.826;8.650;2023-02-18T01:30:37;2.97;;;1.27;;
11084;SDS011;5596;46.826;8.650;2023-02-18T01:33:05;1.53;;;1.10;;
11084;SDS011;5596;46.826;8.650;2023-02-18T01:35:32;2.60;;;1.20;;
11084;SDS011;5596;46.826;8.650;2023-02-18T01:38:00;2.67;;;1.20;;
11084;SDS011;5596;46.826;8.650;2023-02-18T01:40:27;2.80;;;1.40;;
11084;SDS011;5596;46.826;8.650;2023-02-18T01:42:54;1.47;;;1.33;;
11084;SDS011;5596;46.826;8.650;2023-02-18T01:48:13;2.80;;;1.27;;
11084;SDS011;5596;46.826;8.650;2023-02-18T01:50:42;3.07;;;1.30;;
11084;SDS011;5596;46.826;8.650;2023-02-18T01:53:10;1.80;;;1.20;;
11084;SDS011;5596;46.826;8.650;2023-02-18T01:55:40;2.37;;;1.40;;
11084;SDS011;5596;46.826;8.650;2023-02-18T01:58:07;2.37;;;1.20;;
11084;SDS011;5596;46.826;8.650;2023-02-18T02:00:34;2.70;;;1.20;;
11084;SDS011;5596;46.826;8.650;2023-02-18T02:03:01;2.77;;;1.27;;
11084;SDS011;5596;46.826;8.650;2023-02-18T02:05:29;2.23;;;1.30;;
11084;SDS011;5596;46.826;8.650;2023-02-18T02:07:56;1.30;;;1.20;;
11084;SDS011;5596;46.826;8.650;2023-02-18T02:10:25;1.43;;;1.23;;
11084;SDS011;5596;46.826;8.650;2023-02-18T02:12:59;2.53;;;1.60;;
11084;SDS011;5596;46.826;8.650;2023-02-18T02:15:33;2.87;;;1.30;;
11084;SDS011;5596;46.826;8.650;2023-02-18T02:18:11;4.30;;;1.50;;
11084;SDS011;5596;46.826;8.650;2023-02-18T02:20:49;1.57;;;1.10;;
11084;SDS011;5596;46.826;8.650;2023-02-18T02:23:24;1.60;;;1.20;;
11084;SDS011;5596;46.826;8.650;2023-02-18T02:29:14;1.43;;;1.20;;
11084;SDS011;5596;46.826;8.650;2023-02-18T02:31:56;1.70;;;1.50;;
11084;SDS011;5596;46.826;8.650;2023-02-18T02:34:29;3.97;;;1.40;;
11084;SDS011;5596;46.826;8.650;2023-02-18T02:36:57;4.67;;;1.60;;
11084;SDS011;5596;46.826;8.650;2023-02-18T02:39:27;3.17;;;1.40;;
11084;SDS011;5596;46.826;8.650;2023-02-18T02:41:58;1.87;;;1.20;;
11084;SDS011;5596;46.826;8.650;2023-02-18T02:44:29;1.67;;;1.20;;
11084;SDS011;5596;46.826;8.650;2023-02-18T02:46:59;3.27;;;1.60;;
11084;SDS011;5596;46.826;8.650;2023-02-18T02:49:33;1.97;;;1.33;;
11084;SDS011;5596;46.826;8.650;2023-02-18T02:52:04;3.20;;;1.50;;
11084;SDS011;5596;46.826;8.650;2023-02-18T02:54:32;1.90;;;1.37;;
11084;SDS011;5596;46.826;8.650;2023-02-18T02:57:06;1.53;;;1.10;;
11084;SDS011;5596;46.826;8.650;2023-02-18T02:59:36;3.57;;;1.30;;
11084;SDS011;5596;46.826;8.650;2023-02-18T03:02:13;1.30;;;1.20;;
11084;SDS011;5596;46.826;8.650;2023-02-18T03:04:57;1.67;;;1.30;;
11084;SDS011;5596;46.826;8.650;2023-02-18T03:07:34;2.70;;;1.30;;
11084;SDS011;5596;46.826;8.650;2023-02-18T03:10:09;3.13;;;1.27;;
11084;SDS011;5596;46.826;8.650;2023-02-18T03:12:41;2.40;;;1.00;;
11084;SDS011;5596;46.826;8.650;2023-02-18T03:15:14;1.40;;;1.30;;
11084;SDS011;5596;46.826;8.650;2023-02-18T03:17:45;1.47;;;1.27;;
11084;SDS011;5596;46.826;8.650;2023-02-18T03:20:18;1.97;;;1.47;;
11084;SDS011;5596;46.826;8.650;2023-02-18T03:22:48;1.00;;;0.90;;
11084;SDS011;5596;46.826;8.650;2023-02-18T03:25:16;2.03;;;0.93;;
11084;SDS011;5596;46.826;8.650;2023-02-18T03:27:44;1.47;;;1.10;;
11084;SDS011;5596;46.826;8.650;2023-02-18T03:30:14;1.50;;;1.20;;
11084;SDS011;5596;46.826;8.650;2023-02-18T03:32:41;1.80;;;1.20;;
11084;SDS011;5596;46.826;8.650;2023-02-18T03:35:12;2.40;;;1.23;;
11084;SDS011;5596;46.826;8.650;2023-02-18T03:37:42;2.57;;;1.30;;
11084;SDS011;5596;46.826;8.650;2023-02-18T03:40:11;1.73;;;1.23;;
11084;SDS011;5596;46.826;8.650;2023-02-18T03:42:38;4.03;;;0.90;;
11084;SDS011;5596;46.826;8.650;2023-02-18T03:45:05;0.80;;;0.80;;
11084;SDS011;5596;46.826;8.650;2023-02-18T03:47:32;1.20;;;1.03;;
11084;SDS011;5596;46.826;8.650;2023-02-18T03:49:59;1.77;;;1.00;;
11084;SDS011;5596;46.826;8.650;2023-02-18T03:52:25;0.73;;;0.73;;
11084;SDS011;5596;46.826;8.650;2023-02-18T03:54:53;1.30;;;0.90;;
11084;SDS011;5596;46.826;8.650;2023-02-18T03:57:20;3.37;;;1.17;;
11084;SDS011;5596;46.826;8.650;2023-02-18T03:59:47;1.57;;;1.10;;
11084;SDS011;5596;46.826;8.650;2023-02-18T04:02:13;1.27;;;1.13;;
11084;SDS011;5596;46.826;8.650;2023-02-18T04:04:41;3.13;;;1.10;;
11084;SDS011;5596;46.826;8.650;2023-02-18T04:07:08;2.17;;;0.90;;
11084;SDS011;5596;46.826;8.650;2023-02-18T04:09:35;1.30;;;1.03;;
11084;SDS011;5596;46.826;8.650;2023-02-18T04:12:03;2.43;;;0.93;;
11084;SDS011;5596;46.826;8.650;2023-02-18T04:14:30;1.70;;;1.20;;
11084;SDS011;5596;46.826;8.650;2023-02-18T04:16:57;1.50;;;1.10;;
11084;SDS011;5596;46.826;8.650;2023-02-18T04:19:24;1.53;;;0.90;;
11084;SDS011;5596;46.826;8.650;2023-02-18T04:21:50;0.90;;;0.90;;
11084;SDS011;5596;46.826;8.650;2023-02-18T04:24:17;1.17;;;0.93;;
11084;SDS011;5596;46.826;8.650;2023-02-18T04:26:44;1.27;;;1.03;;
11084;SDS011;5596;46.826;8.650;2023-02-18T04:29:12;1.00;;;0.83;;
11084;SDS011;5596;46.826;8.650;2023-02-18T04:31:39;5.93;;;1.40;;
11084;SDS011;5596;46.826;8.650;2023-02-18T04:34:05;2.00;;;0.80;;
11084;SDS011;5596;46.826;8.650;2023-02-18T04:36:32;1.10;;;0.90;;
11084;SDS011;5596;46.826;8.650;2023-02-18T04:38:59;1.57;;;0.97;;
11084;SDS011;5596;46.826;8.650;2023-02-18T04:41:25;2.87;;;1.77;;
11084;SDS011;5596;46.826;8.650;2023-02-18T04:43:52;6.43;;;3.90;;
11084;SDS011;5596;46.826;8.650;2023-02-18T04:46:20;8.33;;;5.30;;
11084;SDS011;5596;46.826;8.650;2023-02-18T04:48:47;5.53;;;2.90;;
11084;SDS011;5596;46.826;8.650;2023-02-18T04:51:13;2.93;;;1.87;;
11084;SDS011;5596;46.826;8.650;2023-02-18T04:53:40;3.30;;;1.70;;
11084;SDS011;5596;46.826;8.650;2023-02-18T04:56:07;4.20;;;2.30;;
11084;SDS011;5596;46.826;8.650;2023-02-18T04:58:33;2.50;;;2.03;;
11084;SDS011;5596;46.826;8.650;2023-02-18T05:01:00;4.50;;;1.90;;
11084;SDS011;5596;46.826;8.650;2023-02-18T05:03:28;3.50;;;2.20;;
11084;SDS011;5596;46.826;8.650;2023-02-18T05:05:55;3.57;;;2.27;;
11084;SDS011;5596;46.826;8.650;2023-02-18T05:08:22;7.53;;;2.60;;
11084;SDS011;5596;46.826;8.650;2023-02-18T05:10:49;4.27;;;2.30;;
11084;SDS011;5596;46.826;8.650;2023-02-18T05:13:16;3.47;;;2.30;;
11084;SDS011;5596;46.826;8.650;2023-02-18T05:15:43;4.20;;;2.10;;
11084;SDS011;5596;46.826;8.650;2023-02-18T05:18:09;3.57;;;2.27;;
11084;SDS011;5596;46.826;8.650;2023-02-18T05:20:38;3.00;;;2.10;;
11084;SDS011;5596;46.826;8.650;2023-02-18T05:23:04;3.03;;;1.83;;
11084;SDS011;5596;46.826;8.650;2023-02-18T05:25:31;4.13;;;1.83;;
11084;SDS011;5596;46.826;8.650;2023-02-18T05:27:58;2.37;;;1.70;;
11084;SDS011;5596;46.826;8.650;2023-02-18T05:30:25;3.67;;;1.50;;
11084;SDS011;5596;46.826;8.650;2023-02-18T05:32:52;2.00;;;1.50;;
11084;SDS011;5596;46.826;8.650;2023-02-18T05:35:19;2.13;;;1.60;;
11084;SDS011;5596;46.826;8.650;2023-02-18T05:37:47;2.97;;;1.80;;
11084;SDS011;5596;46.826;8.650;2023-02-18T05:40:13;3.13;;;1.70;;
11084;SDS011;5596;46.826;8.650;2023-02-18T05:42:40;3.87;;;1.40;;
11084;SDS011;5596;46.826;8.650;2023-02-18T05:45:07;1.83;;;1.33;;
11084;SDS011;5596;46.826;8.650;2023-02-18T05:47:34;2.90;;;1.90;;
11084;SDS011;5596;46.826;8.650;2023-02-18T05:50:01;4.33;;;1.50;;
11084;SDS011;5596;46.826;8.650;2023-02-18T05:52:27;2.67;;;1.60;;
11084;SDS011;5596;46.826;8.650;2023-02-18T05:54:56;3.60;;;1.50;;
11084;SDS011;5596;46.826;8.650;2023-02-18T05:57:22;2.30;;;1.33;;
11084;SDS011;5596;46.826;8.650;2023-02-18T05:59:49;2.20;;;1.60;;
11084;SDS011;5596;46.826;8.650;2023-02-18T06:02:16;1.93;;;1.40;;
11084;SDS011;5596;46.826;8.650;2023-02-18T06:04:42;2.00;;;1.50;;
11084;SDS011;5596;46.826;8.650;2023-02-18T06:07:09;1.83;;;1.40;;
11084;SDS011;5596;46.826;8.650;2023-02-18T06:09:36;2.33;;;1.30;;
11084;SDS011;5596;46.826;8.650;2023-02-18T06:12:05;1.43;;;1.23;;
11084;SDS011;5596;46.826;8.650;2023-02-18T06:14:32;2.20;;;1.53;;
11084;SDS011;5596;46.826;8.650;2023-02-18T06:16:58;3.40;;;1.43;;
11084;SDS011;5596;46.826;8.650;2023-02-18T06:19:25;1.40;;;1.20;;
11084;SDS011;5596;46.826;8.650;2023-02-18T06:21:52;2.37;;;1.30;;
11084;SDS011;5596;46.826;8.650;2023-02-18T06:24:20;1.97;;;1.43;;
11084;SDS011;5596;46.826;8.650;2023-02-18T06:26:46;3.77;;;1.53;;
11084;SDS011;5596;46.826;8.650;2023-02-18T06:29:15;1.70;;;1.27;;
11084;SDS011;5596;46.826;8.650;2023-02-18T06:31:41;2.67;;;1.40;;
11084;SDS011;5596;46.826;8.650;2023-02-18T06:34:08;1.90;;;1.60;;
11084;SDS011;5596;46.826;8.650;2023-02-18T06:36:35;3.53;;;1.40;;
11084;SDS011;5596;46.826;8.650;2023-02-18T06:39:02;1.83;;;1.30;;
11084;SDS011;5596;46.826;8.650;2023-02-18T06:41:29;3.83;;;1.47;;
11084;SDS011;5596;46.826;8.650;2023-02-18T06:43:55;2.13;;;1.40;;
11084;SDS011;5596;46.826;8.650;2023-02-18T06:46:24;2.30;;;1.90;;
11084;SDS011;5596;46.826;8.650;2023-02-18T06:48:50;5.67;;;2.00;;
11084;SDS011;5596;46.826;8.650;2023-02-18T06:51:17;2.10;;;1.63;;
11084;SDS011;5596;46.826;8.650;2023-02-18T06:53:44;2.53;;;1.93;;
11084;SDS011;5596;46.826;8.650;2023-02-18T06:56:11;3.03;;;2.10;;
11084;SDS011;5596;46.826;8.650;2023-02-18T06:58:38;1.70;;;1.60;;
11084;SDS011;5596;46.826;8.650;2023-02-18T07:01:05;3.00;;;2.30;;
11084;SDS011;5596;46.826;8.650;2023-02-18T07:03:33;2.30;;;2.00;;
11084;SDS011;5596;46.826;8.650;2023-02-18T07:06:00;3.33;;;2.23;;
11084;SDS011;5596;46.826;8.650;2023-02-18T07:08:27;4.57;;;2.27;;
11084;SDS011;5596;46.826;8.650;2023-02-18T07:10:55;2.83;;;2.43;;
11084;SDS011;5596;46.826;8.650;2023-02-18T07:13:21;5.20;;;2.47;;
11084;SDS011;5596;46.826;8.650;2023-02-18T07:15:48;4.17;;;2.20;;
11084;SDS011;5596;46.826;8.650;2023-02-18T07:18:15;3.00;;;2.17;;
11084;SDS011;5596;46.826;8.650;2023-02-18T07:20:43;2.47;;;2.20;;
11084;SDS011;5596;46.826;8.650;2023-02-18T07:23:10;8.30;;;3.07;;
11084;SDS011;5596;46.826;8.650;2023-02-18T07:25:37;3.33;;;2.23;;
11084;SDS011;5596;46.826;8.650;2023-02-18T07:28:03;3.00;;;2.20;;
11084;SDS011;5596;46.826;8.650;2023-02-18T07:30:31;4.83;;;2.87;;
11084;SDS011;5596;46.826;8.650;2023-02-18T07:32:57;3.57;;;2.07;;
11084;SDS011;5596;46.826;8.650;2023-02-18T07:35:24;2.07;;;1.57;;
11084;SDS011;5596;46.826;8.650;2023-02-18T07:37:52;3.73;;;1.80;;
11084;SDS011;5596;46.826;8.650;2023-02-18T07:40:19;5.47;;;2.13;;
11084;SDS011;5596;46.826;8.650;2023-02-18T07:42:48;12.60;;;2.60;;
11084;SDS011;5596;46.826;8.650;2023-02-18T07:45:14;3.10;;;2.80;;
11084;SDS011;5596;46.826;8.650;2023-02-18T07:47:41;2.40;;;2.00;;
11084;SDS011;5596;46.826;8.650;2023-02-18T07:50:12;2.70;;;2.10;;
11084;SDS011;5596;46.826;8.650;2023-02-18T07:52:39;2.80;;;2.30;;
11084;SDS011;5596;46.826;8.650;2023-02-18T07:55:08;4.33;;;2.37;;
11084;SDS011;5596;46.826;8.650;2023-02-18T07:57:34;3.13;;;2.47;;
11084;SDS011;5596;46.826;8.650;2023-02-18T08:00:21;3.00;;;2.20;;
11084;SDS011;5596;46.826;8.650;2023-02-18T08:02:48;4.77;;;3.00;;
11084;SDS011;5596;46.826;8.650;2023-02-18T08:05:15;5.43;;;3.00;;
11084;SDS011;5596;46.826;8.650;2023-02-18T08:07:41;6.73;;;3.73;;
11084;SDS011;5596;46.826;8.650;2023-02-18T08:10:10;5.67;;;3.30;;
11084;SDS011;5596;46.826;8.650;2023-02-18T08:12:37;4.93;;;3.27;;
11084;SDS011;5596;46.826;8.650;2023-02-18T08:15:04;5.70;;;3.13;;
11084;SDS011;5596;46.826;8.650;2023-02-18T08:17:31;4.13;;;2.67;;
11084;SDS011;5596;46.826;8.650;2023-02-18T08:19:58;5.03;;;2.90;;
11084;SDS011;5596;46.826;8.650;2023-02-18T08:22:24;4.70;;;2.90;;
11084;SDS011;5596;46.826;8.650;2023-02-18T08:24:52;5.17;;;3.33;;
11084;SDS011;5596;46.826;8.650;2023-02-18T08:27:21;5.60;;;3.30;;
11084;SDS011;5596;46.826;8.650;2023-02-18T08:29:47;4.93;;;2.93;;
11084;SDS011;5596;46.826;8.650;2023-02-18T08:32:14;4.90;;;2.97;;
11084;SDS011;5596;46.826;8.650;2023-02-18T08:34:41;5.43;;;3.60;;
11084;SDS011;5596;46.826;8.650;2023-02-18T08:37:07;6.40;;;3.47;;
11084;SDS011;5596;46.826;8.650;2023-02-18T08:39:34;8.23;;;3.00;;
11084;SDS011;5596;46.826;8.650;2023-02-18T08:42:01;3.33;;;2.87;;
11084;SDS011;5596;46.826;8.650;2023-02-18T08:44:29;4.40;;;2.53;;
11084;SDS011;5596;46.826;8.650;2023-02-18T08:46:56;3.80;;;2.10;;
11084;SDS011;5596;46.826;8.650;2023-02-18T08:49:23;4.20;;;2.50;;
11084;SDS011;5596;46.826;8.650;2023-02-18T08:51:50;5.37;;;3.40;;
11084;SDS011;5596;46.826;8.650;2023-02-18T08:54:16;7.27;;;3.70;;
11084;SDS011;5596;46.826;8.650;2023-02-18T08:56:43;8.80;;;2.90;;
11084;SDS011;5596;46.826;8.650;2023-02-18T08:59:10;3.60;;;2.67;;
11084;SDS011;5596;46.826;8.650;2023-02-18T09:01:38;5.30;;;3.60;;
11084;SDS011;5596;46.826;8.650;2023-02-18T09:04:05;4.87;;;3.40;;
11084;SDS011;5596;46.826;8.650;2023-02-18T09:06:35;5.87;;;3.80;;
11084;SDS011;5596;46.826;8.650;2023-02-18T09:09:02;15.57;;;6.37;;
11084;SDS011;5596;46.826;8.650;2023-02-18T09:11:29;8.37;;;3.50;;
11084;SDS011;5596;46.826;8.650;2023-02-18T09:13:55;7.73;;;4.63;;
11084;SDS011;5596;46.826;8.650;2023-02-18T09:16:22;8.03;;;4.37;;
11084;SDS011;5596;46.826;8.650;2023-02-18T09:18:50;5.60;;;2.80;;
11084;SDS011;5596;46.826;8.650;2023-02-18T09:21:17;5.07;;;2.50;;
11084;SDS011;5596;46.826;8.650;2023-02-18T09:23:45;4.33;;;2.23;;
11084;SDS011;5596;46.826;8.650;2023-02-18T09:26:12;9.47;;;4.20;;
11084;SDS011;5596;46.826;8.650;2023-02-18T09:28:39;9.90;;;4.87;;
11084;SDS011;5596;46.826;8.650;2023-02-18T09:31:07;6.87;;;4.17;;
11084;SDS011;5596;46.826;8.650;2023-02-18T09:33:35;6.27;;;3.27;;
11084;SDS011;5596;46.826;8.650;2023-02-18T09:36:04;6.67;;;3.43;;
11084;SDS011;5596;46.826;8.650;2023-02-18T09:38:31;5.70;;;3.20;;
11084;SDS011;5596;46.826;8.650;2023-02-18T09:40:58;8.53;;;3.40;;
11084;SDS011;5596;46.826;8.650;2023-02-18T09:43:28;9.70;;;4.13;;
11084;SDS011;5596;46.826;8.650;2023-02-18T09:45:55;10.17;;;3.63;;
11084;SDS011;5596;46.826;8.650;2023-02-18T09:48:24;9.93;;;3.57;;
11084;SDS011;5596;46.826;8.650;2023-02-18T09:50:52;8.53;;;4.03;;
11084;SDS011;5596;46.826;8.650;2023-02-18T09:53:22;5.77;;;3.10;;
11084;SDS011;5596;46.826;8.650;2023-02-18T09:55:50;6.13;;;3.37;;
11084;SDS011;5596;46.826;8.650;2023-02-18T09:58:19;8.90;;;2.83;;
11084;SDS011;5596;46.826;8.650;2023-02-18T10:00:47;10.00;;;3.47;;
11084;SDS011;5596;46.826;8.650;2023-02-18T10:03:16;5.07;;;2.90;;
11084;SDS011;5596;46.826;8.650;2023-02-18T10:05:46;3.70;;;2.60;;
11084;SDS011;5596;46.826;8.650;2023-02-18T10:08:16;4.23;;;3.47;;
11084;SDS011;5596;46.826;8.650;2023-02-18T10:10:46;5.93;;;3.70;;
11084;SDS011;5596;46.826;8.650;2023-02-18T10:13:14;7.90;;;2.63;;
11084;SDS011;5596;46.826;8.650;2023-02-18T10:15:41;7.83;;;2.40;;
11084;SDS011;5596;46.826;8.650;2023-02-18T10:18:13;6.00;;;2.87;;
11084;SDS011;5596;46.826;8.650;2023-02-18T10:20:43;4.50;;;2.10;;
11084;SDS011;5596;46.826;8.650;2023-02-18T10:23:09;5.17;;;1.90;;
11084;SDS011;5596;46.826;8.650;2023-02-18T10:25:38;2.87;;;2.00;;
11084;SDS011;5596;46.826;8.650;2023-02-18T10:28:09;6.43;;;1.93;;
11084;SDS011;5596;46.826;8.650;2023-02-18T10:30:37;9.07;;;2.97;;
11084;SDS011;5596;46.826;8.650;2023-02-18T10:33:09;4.50;;;1.87;;
11084;SDS011;5596;46.826;8.650;2023-02-18T10:35:43;1.67;;;1.40;;
11084;SDS011;5596;46.826;8.650;2023-02-18T10:38:13;4.23;;;1.57;;
11084;SDS011;5596;46.826;8.650;2023-02-18T10:40:46;4.13;;;1.60;;
11084;SDS011;5596;46.826;8.650;2023-02-18T10:43:20;1.47;;;1.37;;
11084;SDS011;5596;46.826;8.650;2023-02-18T10:45:50;2.00;;;1.20;;
11084;SDS011;5596;46.826;8.650;2023-02-18T10:48:39;2.13;;;1.23;;
11084;SDS011;5596;46.826;8.650;2023-02-18T10:51:11;1.90;;;1.20;;
11084;SDS011;5596;46.826;8.650;2023-02-18T10:53:40;2.10;;;1.40;;
11084;SDS011;5596;46.826;8.650;2023-02-18T10:56:07;2.53;;;1.17;;
11084;SDS011;5596;46.826;8.650;2023-02-18T10:58:36;13.73;;;2.50;;
11084;SDS011;5596;46.826;8.650;2023-02-18T11:01:12;3.57;;;1.77;;
11084;SDS011;5596;46.826;8.650;2023-02-18T11:03:41;4.67;;;1.40;;
11084;SDS011;5596;46.826;8.650;2023-02-18T11:06:14;2.90;;;1.00;;
11084;SDS011;5596;46.826;8.650;2023-02-18T11:08:42;1.43;;;1.20;;
11084;SDS011;5596;46.826;8.650;2023-02-18T11:11:11;1.33;;;1.10;;
11084;SDS011;5596;46.826;8.650;2023-02-18T11:13:42;1.77;;;1.23;;
11084;SDS011;5596;46.826;8.650;2023-02-18T11:16:09;2.40;;;1.13;;
11084;SDS011;5596;46.826;8.650;2023-02-18T11:18:38;2.20;;;1.20;;
11084;SDS011;5596;46.826;8.650;2023-02-18T11:21:09;2.03;;;1.10;;
11084;SDS011;5596;46.826;8.650;2023-02-18T11:23:45;1.00;;;0.90;;
11084;SDS011;5596;46.826;8.650;2023-02-18T11:26:12;1.30;;;0.90;;
11084;SDS011;5596;46.826;8.650;2023-02-18T11:28:42;4.33;;;1.37;;
11084;SDS011;5596;46.826;8.650;2023-02-18T11:31:10;2.67;;;1.03;;
11084;SDS011;5596;46.826;8.650;2023-02-18T11:33:37;2.27;;;1.10;;
11084;SDS011;5596;46.826;8.650;2023-02-18T11:36:08;2.03;;;1.60;;
11084;SDS011;5596;46.826;8.650;2023-02-18T11:38:41;3.43;;;1.63;;
11084;SDS011;5596;46.826;8.650;2023-02-18T11:41:10;1.30;;;1.20;;
11084;SDS011;5596;46.826;8.650;2023-02-18T11:43:39;2.30;;;1.20;;
11084;SDS011;5596;46.826;8.650;2023-02-18T11:46:09;1.40;;;1.00;;
11084;SDS011;5596;46.826;8.650;2023-02-18T11:48:37;3.07;;;1.20;;
11084;SDS011;5596;46.826;8.650;2023-02-18T11:51:03;2.93;;;1.20;;
11084;SDS011;5596;46.826;8.650;2023-02-18T11:53:31;1.67;;;1.27;;
11084;SDS011;5596;46.826;8.650;2023-02-18T11:55:59;2.00;;;1.00;;
11084;SDS011;5596;46.826;8.650;2023-02-18T11:58:26;1.40;;;1.10;;
11084;SDS011;5596;46.826;8.650;2023-02-18T12:00:54;1.80;;;1.30;;
11084;SDS011;5596;46.826;8.650;2023-02-18T12:03:26;3.00;;;1.63;;
11084;SDS011;5596;46.826;8.650;2023-02-18T12:05:56;5.83;;;1.50;;
11084;SDS011;5596;46.826;8.650;2023-02-18T12:08:24;2.97;;;1.60;;
11084;SDS011;5596;46.826;8.650;2023-02-18T12:10:53;2.33;;;1.70;;
11084;SDS011;5596;46.826;8.650;2023-02-18T12:13:22;2.17;;;1.30;;
11084;SDS011;5596;46.826;8.650;2023-02-18T12:15:52;1.40;;;1.20;;
11084;SDS011;5596;46.826;8.650;2023-02-18T12:18:34;3.20;;;2.00;;
11084;SDS011;5596;46.826;8.650;2023-02-18T12:23:51;1.63;;;1.30;;
11084;SDS011;5596;46.826;8.650;2023-02-18T12:26:23;2.90;;;1.30;;
11084;SDS011;5596;46.826;8.650;2023-02-18T12:28:59;3.47;;;1.47;;
11084;SDS011;5596;46.826;8.650;2023-02-18T12:31:34;3.33;;;1.60;;
11084;SDS011;5596;46.826;8.650;2023-02-18T12:34:17;3.07;;;1.50;;
11084;SDS011;5596;46.826;8.650;2023-02-18T12:36:53;5.50;;;1.80;;
11084;SDS011;5596;46.826;8.650;2023-02-18T12:39:25;2.70;;;1.77;;
11084;SDS011;5596;46.826;8.650;2023-02-18T12:42:03;2.17;;;1.80;;
11084;SDS011;5596;46.826;8.650;2023-02-18T12:44:33;6.60;;;2.63;;
11084;SDS011;5596;46.826;8.650;2023-02-18T12:47:09;2.90;;;1.90;;
11084;SDS011;5596;46.826;8.650;2023-02-18T12:49:47;3.70;;;1.80;;
11084;SDS011;5596;46.826;8.650;2023-02-18T12:52:23;3.00;;;2.10;;
11084;SDS011;5596;46.826;8.650;2023-02-18T12:54:56;2.17;;;1.50;;
11084;SDS011;5596;46.826;8.650;2023-02-18T12:57:30;3.83;;;1.87;;
11084;SDS011;5596;46.826;8.650;2023-02-18T13:02:48;4.43;;;2.03;;
11084;SDS011;5596;46.826;8.650;2023-02-18T13:05:25;3.03;;;1.77;;
11084;SDS011;5596;46.826;8.650;2023-02-18T13:07:55;3.67;;;1.70;;
11084;SDS011;5596;46.826;8.650;2023-02-18T13:10:30;3.40;;;1.93;;
11084;SDS011;5596;46.826;8.650;2023-02-18T13:13:03;4.40;;;2.30;;
11084;SDS011;5596;46.826;8.650;2023-02-18T13:15:35;4.73;;;1.90;;
11084;SDS011;5596;46.826;8.650;2023-02-18T13:18:03;2.73;;;1.30;;
11084;SDS011;5596;46.826;8.650;2023-02-18T13:20:34;2.90;;;1.30;;
11084;SDS011;5596;46.826;8.650;2023-02-18T13:23:02;1.77;;;1.30;;
11084;SDS011;5596;46.826;8.650;2023-02-18T13:25:30;1.60;;;1.20;;
11084;SDS011;5596;46.826;8.650;2023-02-18T13:27:59;1.27;;;1.00;;
11084;SDS011;5596;46.826;8.650;2023-02-18T13:30:36;1.30;;;1.20;;
11084;SDS011;5596;46.826;8.650;2023-02-18T13:33:06;1.20;;;1.10;;
11084;SDS011;5596;46.826;8.650;2023-02-18T13:35:36;2.80;;;1.20;;
11084;SDS011;5596;46.826;8.650;2023-02-18T13:40:58;1.50;;;1.40;;
11084;SDS011;5596;46.826;8.650;2023-02-18T13:43:29;6.07;;;1.53;;
11084;SDS011;5596;46.826;8.650;2023-02-18T13:46:04;3.20;;;1.40;;
11084;SDS011;5596;46.826;8.650;2023-02-18T13:48:34;1.30;;;1.20;;
11084;SDS011;5596;46.826;8.650;2023-02-18T13:51:05;10.13;;;1.30;;
11084;SDS011;5596;46.826;8.650;2023-02-18T13:53:34;2.33;;;1.33;;
11084;SDS011;5596;46.826;8.650;2023-02-18T13:56:06;1.97;;;1.60;;
11084;SDS011;5596;46.826;8.650;2023-02-18T13:58:36;1.57;;;1.33;;
11084;SDS011;5596;46.826;8.650;2023-02-18T14:01:04;2.33;;;1.37;;
11084;SDS011;5596;46.826;8.650;2023-02-18T14:03:36;1.67;;;1.10;;
11084;SDS011;5596;46.826;8.650;2023-02-18T14:06:17;4.23;;;1.50;;
11084;SDS011;5596;46.826;8.650;2023-02-18T14:08:44;4.10;;;1.93;;
11084;SDS011;5596;46.826;8.650;2023-02-18T14:19:26;2.40;;;1.70;;
11084;SDS011;5596;46.826;8.650;2023-02-18T14:21:59;6.47;;;1.50;;
11084;SDS011;5596;46.826;8.650;2023-02-18T14:24:47;3.73;;;1.23;;
11084;SDS011;5596;46.826;8.650;2023-02-18T14:27:15;1.83;;;1.17;;
11084;SDS011;5596;46.826;8.650;2023-02-18T14:29:42;2.67;;;1.20;;
11084;SDS011;5596;46.826;8.650;2023-02-18T14:32:09;2.97;;;1.40;;
11084;SDS011;5596;46.826;8.650;2023-02-18T14:37:39;1.23;;;1.07;;
11084;SDS011;5596;46.826;8.650;2023-02-18T14:40:15;1.30;;;1.20;;
11084;SDS011;5596;46.826;8.650;2023-02-18T14:42:46;1.93;;;1.33;;
11084;SDS011;5596;46.826;8.650;2023-02-18T14:45:17;1.50;;;1.33;;
11084;SDS011;5596;46.826;8.650;2023-02-18T14:47:53;1.97;;;1.50;;
11084;SDS011;5596;46.826;8.650;2023-02-18T14:50:21;3.13;;;2.10;;
11084;SDS011;5596;46.826;8.650;2023-02-18T14:52:48;4.70;;;2.00;;
11084;SDS011;5596;46.826;8.650;2023-02-18T14:55:19;3.17;;;1.50;;
11084;SDS011;5596;46.826;8.650;2023-02-18T14:57:47;3.63;;;1.97;;
11084;SDS011;5596;46.826;8.650;2023-02-18T15:00:16;6.77;;;2.87;;
11084;SDS011;5596;46.826;8.650;2023-02-18T15:02:43;6.13;;;3.30;;
11084;SDS011;5596;46.826;8.650;2023-02-18T15:05:14;6.37;;;3.43;;
11084;SDS011;5596;46.826;8.650;2023-02-18T15:07:41;6.37;;;4.00;;
11084;SDS011;5596;46.826;8.650;2023-02-18T15:10:21;6.50;;;3.23;;
11084;SDS011;5596;46.826;8.650;2023-02-18T15:12:47;6.97;;;3.87;;
11084;SDS011;5596;46.826;8.650;2023-02-18T15:15:14;6.73;;;3.73;;
11084;SDS011;5596;46.826;8.650;2023-02-18T15:17:46;1.70;;;1.43;;
11084;SDS011;5596;46.826;8.650;2023-02-18T15:20:15;3.43;;;1.93;;
11084;SDS011;5596;46.826;8.650;2023-02-18T15:22:42;5.57;;;4.10;;
11084;SDS011;5596;46.826;8.650;2023-02-18T15:25:10;6.73;;;4.57;;
11084;SDS011;5596;46.826;8.650;2023-02-18T15:27:40;4.13;;;2.50;;
11084;SDS011;5596;46.826;8.650;2023-02-18T15:30:19;3.43;;;1.70;;
11084;SDS011;5596;46.826;8.650;2023-02-18T15:32:49;4.20;;;2.20;;
11084;SDS011;5596;46.826;8.650;2023-02-18T15:35:18;4.03;;;2.00;;
11084;SDS011;5596;46.826;8.650;2023-02-18T15:37:45;4.00;;;2.43;;